sensor_id;sensor_type;location;lat;lon;timestamp;P1;durP1;ratioP1;P2;durP2;ratioP2
69981;SDS011;57319;56.274;43.980;2023-04-06T00:01:06;5.32;;;2.45;;
69981;SDS011;57319;56.274;43.980;2023-04-06T00:03:32;5.47;;;2.42;;
69981;SDS011;57319;56.274;43.980;2023-04-06T00:05:59;3.60;;;2.40;;
69981;SDS011;57319;56.274;43.980;2023-04-06T00:08:25;2.80;;;1.90;;
69981;SDS011;57319;56.274;43.980;2023-04-06T00:10:52;4.20;;;2.15;;
69981;SDS011;57319;56.274;43.980;2023-04-06T00:13:18;2.45;;;2.13;;
69981;SDS011;57319;56.274;43.980;2023-04-06T00:15:43;7.65;;;1.95;;
69981;SDS011;57319;56.274;43.980;2023-04-06T00:18:09;2.38;;;2.17;;
69981;SDS011;57319;56.274;43.980;2023-04-06T00:20:35;2.30;;;2.10;;
69981;SDS011;57319;56.274;43.980;2023-04-06T00:23:00;2.80;;;2.25;;
69981;SDS011;57319;56.274;43.980;2023-04-06T00:25:27;2.80;;;2.05;;
69981;SDS011;57319;56.274;43.980;2023-04-06T00:27:53;9.90;;;1.98;;
69981;SDS011;57319;56.274;43.980;2023-04-06T00:30:18;14.45;;;2.53;;
69981;SDS011;57319;56.274;43.980;2023-04-06T00:32:44;14.25;;;2.30;;
69981;SDS011;57319;56.274;43.980;2023-04-06T00:35:10;5.28;;;2.42;;
69981;SDS011;57319;56.274;43.980;2023-04-06T00:37:36;3.42;;;2.10;;
69981;SDS011;57319;56.274;43.980;2023-04-06T00:40:01;6.00;;;2.25;;
69981;SDS011;57319;56.274;43.980;2023-04-06T00:42:28;2.03;;;1.92;;
69981;SDS011;57319;56.274;43.980;2023-04-06T00:44:55;5.07;;;2.17;;
69981;SDS011;57319;56.274;43.980;2023-04-06T00:47:22;1.80;;;1.80;;
69981;SDS011;57319;56.274;43.980;2023-04-06T00:49:50;6.57;;;1.95;;
69981;SDS011;57319;56.274;43.980;2023-04-06T00:52:16;7.88;;;2.28;;
69981;SDS011;57319;56.274;43.980;2023-04-06T00:54:42;1.88;;;1.75;;
69981;SDS011;57319;56.274;43.980;2023-04-06T00:57:09;6.80;;;2.78;;
69981;SDS011;57319;56.274;43.980;2023-04-06T00:59:36;2.00;;;1.85;;
69981;SDS011;57319;56.274;43.980;2023-04-06T01:02:02;2.28;;;2.17;;
69981;SDS011;57319;56.274;43.980;2023-04-06T01:04:28;4.68;;;2.20;;
69981;SDS011;57319;56.274;43.980;2023-04-06T01:06:53;2.22;;;2.13;;
69981;SDS011;57319;56.274;43.980;2023-04-06T01:09:20;4.57;;;1.67;;
69981;SDS011;57319;56.274;43.980;2023-04-06T01:11:46;4.47;;;2.00;;
69981;SDS011;57319;56.274;43.980;2023-04-06T01:14:12;7.50;;;2.08;;
69981;SDS011;57319;56.274;43.980;2023-04-06T01:16:38;4.38;;;2.05;;
69981;SDS011;57319;56.274;43.980;2023-04-06T01:19:10;1.90;;;1.80;;
69981;SDS011;57319;56.274;43.980;2023-04-06T01:21:37;6.13;;;2.22;;
69981;SDS011;57319;56.274;43.980;2023-04-06T01:24:04;2.50;;;2.40;;
69981;SDS011;57319;56.274;43.980;2023-04-06T01:26:30;3.15;;;2.53;;
69981;SDS011;57319;56.274;43.980;2023-04-06T01:28:56;5.63;;;2.10;;
69981;SDS011;57319;56.274;43.980;2023-04-06T01:31:22;4.30;;;2.05;;
69981;SDS011;57319;56.274;43.980;2023-04-06T01:33:48;2.20;;;2.00;;
69981;SDS011;57319;56.274;43.980;2023-04-06T01:36:14;6.22;;;2.50;;
69981;SDS011;57319;56.274;43.980;2023-04-06T01:38:40;2.78;;;2.20;;
69981;SDS011;57319;56.274;43.980;2023-04-06T01:41:06;2.60;;;2.38;;
69981;SDS011;57319;56.274;43.980;2023-04-06T01:43:33;2.70;;;2.50;;
69981;SDS011;57319;56.274;43.980;2023-04-06T01:45:58;2.03;;;1.90;;
69981;SDS011;57319;56.274;43.980;2023-04-06T01:48:25;5.85;;;2.30;;
69981;SDS011;57319;56.274;43.980;2023-04-06T01:50:51;9.55;;;2.83;;
69981;SDS011;57319;56.274;43.980;2023-04-06T01:53:16;6.47;;;2.10;;
69981;SDS011;57319;56.274;43.980;2023-04-06T01:55:42;3.35;;;2.30;;
69981;SDS011;57319;56.274;43.980;2023-04-06T01:58:08;2.35;;;2.13;;
69981;SDS011;57319;56.274;43.980;2023-04-06T02:00:33;3.22;;;2.05;;
69981;SDS011;57319;56.274;43.980;2023-04-06T02:02:59;4.60;;;2.17;;
69981;SDS011;57319;56.274;43.980;2023-04-06T02:05:25;2.55;;;2.22;;
69981;SDS011;57319;56.274;43.980;2023-04-06T02:07:51;2.28;;;2.17;;
69981;SDS011;57319;56.274;43.980;2023-04-06T02:10:17;4.78;;;2.15;;
69981;SDS011;57319;56.274;43.980;2023-04-06T02:12:43;10.32;;;2.65;;
69981;SDS011;57319;56.274;43.980;2023-04-06T02:15:08;10.30;;;2.33;;
69981;SDS011;57319;56.274;43.980;2023-04-06T02:17:34;2.58;;;2.38;;
69981;SDS011;57319;56.274;43.980;2023-04-06T02:20:02;2.20;;;2.10;;
69981;SDS011;57319;56.274;43.980;2023-04-06T02:22:28;5.25;;;2.33;;
69981;SDS011;57319;56.274;43.980;2023-04-06T02:24:54;2.85;;;2.22;;
69981;SDS011;57319;56.274;43.980;2023-04-06T02:27:20;3.53;;;2.63;;
69981;SDS011;57319;56.274;43.980;2023-04-06T02:29:45;2.50;;;2.30;;
69981;SDS011;57319;56.274;43.980;2023-04-06T02:32:11;2.60;;;2.42;;
69981;SDS011;57319;56.274;43.980;2023-04-06T02:34:36;3.40;;;3.00;;
69981;SDS011;57319;56.274;43.980;2023-04-06T02:37:02;6.68;;;2.92;;
69981;SDS011;57319;56.274;43.980;2023-04-06T02:39:28;3.38;;;2.97;;
69981;SDS011;57319;56.274;43.980;2023-04-06T02:41:53;10.90;;;3.78;;
69981;SDS011;57319;56.274;43.980;2023-04-06T02:44:20;7.43;;;4.13;;
69981;SDS011;57319;56.274;43.980;2023-04-06T02:46:46;11.68;;;5.18;;
69981;SDS011;57319;56.274;43.980;2023-04-06T02:49:11;10.23;;;4.20;;
69981;SDS011;57319;56.274;43.980;2023-04-06T02:51:37;13.65;;;3.88;;
69981;SDS011;57319;56.274;43.980;2023-04-06T02:54:02;11.77;;;5.53;;
69981;SDS011;57319;56.274;43.980;2023-04-06T02:56:28;3.70;;;3.38;;
69981;SDS011;57319;56.274;43.980;2023-04-06T02:58:54;3.72;;;3.15;;
69981;SDS011;57319;56.274;43.980;2023-04-06T03:01:20;8.50;;;2.95;;
69981;SDS011;57319;56.274;43.980;2023-04-06T03:03:45;3.47;;;2.58;;
69981;SDS011;57319;56.274;43.980;2023-04-06T03:06:11;6.40;;;3.15;;
69981;SDS011;57319;56.274;43.980;2023-04-06T03:08:36;12.00;;;3.30;;
69981;SDS011;57319;56.274;43.980;2023-04-06T03:11:02;7.43;;;4.47;;
69981;SDS011;57319;56.274;43.980;2023-04-06T03:13:28;7.88;;;4.78;;
69981;SDS011;57319;56.274;43.980;2023-04-06T03:15:53;6.05;;;3.65;;
69981;SDS011;57319;56.274;43.980;2023-04-06T03:18:22;17.50;;;6.32;;
69981;SDS011;57319;56.274;43.980;2023-04-06T03:20:49;6.57;;;4.50;;
69981;SDS011;57319;56.274;43.980;2023-04-06T03:23:15;18.13;;;6.28;;
69981;SDS011;57319;56.274;43.980;2023-04-06T03:25:41;8.82;;;4.70;;
69981;SDS011;57319;56.274;43.980;2023-04-06T03:28:07;13.95;;;4.10;;
69981;SDS011;57319;56.274;43.980;2023-04-06T03:30:33;15.55;;;6.35;;
69981;SDS011;57319;56.274;43.980;2023-04-06T03:32:59;8.18;;;6.00;;
69981;SDS011;57319;56.274;43.980;2023-04-06T03:35:25;10.98;;;4.93;;
69981;SDS011;57319;56.274;43.980;2023-04-06T03:37:51;5.60;;;3.65;;
69981;SDS011;57319;56.274;43.980;2023-04-06T03:40:16;9.98;;;3.85;;
69981;SDS011;57319;56.274;43.980;2023-04-06T03:42:42;3.65;;;3.30;;
69981;SDS011;57319;56.274;43.980;2023-04-06T03:45:08;3.10;;;2.90;;
69981;SDS011;57319;56.274;43.980;2023-04-06T03:47:34;5.65;;;3.30;;
69981;SDS011;57319;56.274;43.980;2023-04-06T03:50:00;5.80;;;3.05;;
69981;SDS011;57319;56.274;43.980;2023-04-06T03:52:25;14.55;;;3.65;;
69981;SDS011;57319;56.274;43.980;2023-04-06T03:54:52;8.25;;;3.47;;
69981;SDS011;57319;56.274;43.980;2023-04-06T03:57:17;11.05;;;3.75;;
69981;SDS011;57319;56.274;43.980;2023-04-06T03:59:43;5.72;;;3.30;;
69981;SDS011;57319;56.274;43.980;2023-04-06T04:02:09;4.38;;;2.83;;
69981;SDS011;57319;56.274;43.980;2023-04-06T04:04:34;11.82;;;3.45;;
69981;SDS011;57319;56.274;43.980;2023-04-06T04:07:00;24.00;;;4.28;;
69981;SDS011;57319;56.274;43.980;2023-04-06T04:09:25;8.23;;;3.67;;
69981;SDS011;57319;56.274;43.980;2023-04-06T04:11:51;6.57;;;3.80;;
69981;SDS011;57319;56.274;43.980;2023-04-06T04:14:17;6.15;;;2.88;;
69981;SDS011;57319;56.274;43.980;2023-04-06T04:16:42;5.22;;;3.08;;
69981;SDS011;57319;56.274;43.980;2023-04-06T04:19:08;7.93;;;3.28;;
69981;SDS011;57319;56.274;43.980;2023-04-06T04:21:34;11.95;;;3.28;;
69981;SDS011;57319;56.274;43.980;2023-04-06T04:24:08;4.43;;;2.78;;
69981;SDS011;57319;56.274;43.980;2023-04-06T04:26:34;9.02;;;3.25;;
69981;SDS011;57319;56.274;43.980;2023-04-06T04:28:59;6.00;;;2.72;;
69981;SDS011;57319;56.274;43.980;2023-04-06T04:31:25;17.40;;;3.03;;
69981;SDS011;57319;56.274;43.980;2023-04-06T04:33:50;4.60;;;3.10;;
69981;SDS011;57319;56.274;43.980;2023-04-06T04:36:16;121.97;;;8.43;;
69981;SDS011;57319;56.274;43.980;2023-04-06T04:38:42;10.23;;;3.28;;
69981;SDS011;57319;56.274;43.980;2023-04-06T04:41:07;3.42;;;2.55;;
69981;SDS011;57319;56.274;43.980;2023-04-06T04:43:33;6.07;;;2.83;;
69981;SDS011;57319;56.274;43.980;2023-04-06T04:45:58;7.53;;;2.67;;
69981;SDS011;57319;56.274;43.980;2023-04-06T04:48:24;3.28;;;3.05;;
69981;SDS011;57319;56.274;43.980;2023-04-06T04:50:50;9.27;;;2.83;;
69981;SDS011;57319;56.274;43.980;2023-04-06T04:53:16;3.03;;;2.67;;
69981;SDS011;57319;56.274;43.980;2023-04-06T04:55:41;10.27;;;3.15;;
69981;SDS011;57319;56.274;43.980;2023-04-06T04:58:07;9.70;;;3.55;;
69981;SDS011;57319;56.274;43.980;2023-04-06T05:00:34;42.75;;;4.10;;
69981;SDS011;57319;56.274;43.980;2023-04-06T05:03:00;74.65;;;6.80;;
69981;SDS011;57319;56.274;43.980;2023-04-06T05:05:25;18.20;;;3.45;;
69981;SDS011;57319;56.274;43.980;2023-04-06T05:07:51;12.27;;;3.05;;
69981;SDS011;57319;56.274;43.980;2023-04-06T05:10:17;32.92;;;3.00;;
69981;SDS011;57319;56.274;43.980;2023-04-06T05:12:42;9.13;;;3.58;;
69981;SDS011;57319;56.274;43.980;2023-04-06T05:15:08;11.40;;;3.08;;
69981;SDS011;57319;56.274;43.980;2023-04-06T05:17:34;8.00;;;3.00;;
69981;SDS011;57319;56.274;43.980;2023-04-06T05:20:00;2.53;;;2.35;;
69981;SDS011;57319;56.274;43.980;2023-04-06T05:22:26;20.33;;;2.80;;
69981;SDS011;57319;56.274;43.980;2023-04-06T05:24:51;13.60;;;2.97;;
69981;SDS011;57319;56.274;43.980;2023-04-06T05:27:17;6.03;;;3.03;;
69981;SDS011;57319;56.274;43.980;2023-04-06T05:29:43;9.68;;;3.30;;
69981;SDS011;57319;56.274;43.980;2023-04-06T05:32:08;18.80;;;3.50;;
69981;SDS011;57319;56.274;43.980;2023-04-06T05:34:35;26.35;;;2.97;;
69981;SDS011;57319;56.274;43.980;2023-04-06T05:37:01;14.05;;;2.90;;
69981;SDS011;57319;56.274;43.980;2023-04-06T05:39:27;11.73;;;4.22;;
69981;SDS011;57319;56.274;43.980;2023-04-06T05:41:53;19.80;;;2.90;;
69981;SDS011;57319;56.274;43.980;2023-04-06T05:44:19;12.18;;;2.90;;
69981;SDS011;57319;56.274;43.980;2023-04-06T05:46:44;6.72;;;2.92;;
69981;SDS011;57319;56.274;43.980;2023-04-06T05:49:10;13.38;;;3.30;;
69981;SDS011;57319;56.274;43.980;2023-04-06T05:51:36;20.40;;;2.78;;
69981;SDS011;57319;56.274;43.980;2023-04-06T05:54:01;11.20;;;3.30;;
69981;SDS011;57319;56.274;43.980;2023-04-06T05:56:27;11.82;;;2.97;;
69981;SDS011;57319;56.274;43.980;2023-04-06T05:58:55;20.55;;;3.13;;
69981;SDS011;57319;56.274;43.980;2023-04-06T06:01:20;21.80;;;2.72;;
69981;SDS011;57319;56.274;43.980;2023-04-06T06:03:46;44.65;;;3.40;;
69981;SDS011;57319;56.274;43.980;2023-04-06T06:06:12;7.50;;;2.53;;
69981;SDS011;57319;56.274;43.980;2023-04-06T06:08:37;3.22;;;1.95;;
69981;SDS011;57319;56.274;43.980;2023-04-06T06:11:03;6.95;;;2.05;;
69981;SDS011;57319;56.274;43.980;2023-04-06T06:13:29;5.82;;;2.25;;
69981;SDS011;57319;56.274;43.980;2023-04-06T06:15:55;9.90;;;2.40;;
69981;SDS011;57319;56.274;43.980;2023-04-06T06:18:20;4.15;;;2.30;;
69981;SDS011;57319;56.274;43.980;2023-04-06T06:20:46;9.10;;;2.28;;
69981;SDS011;57319;56.274;43.980;2023-04-06T06:23:11;4.32;;;2.38;;
69981;SDS011;57319;56.274;43.980;2023-04-06T06:25:37;7.20;;;2.40;;
69981;SDS011;57319;56.274;43.980;2023-04-06T06:28:03;4.43;;;1.77;;
69981;SDS011;57319;56.274;43.980;2023-04-06T06:30:29;5.90;;;2.15;;
69981;SDS011;57319;56.274;43.980;2023-04-06T06:32:55;5.38;;;2.65;;
69981;SDS011;57319;56.274;43.980;2023-04-06T06:35:20;9.48;;;2.33;;
69981;SDS011;57319;56.274;43.980;2023-04-06T06:37:46;11.18;;;1.92;;
69981;SDS011;57319;56.274;43.980;2023-04-06T06:40:12;9.40;;;2.10;;
69981;SDS011;57319;56.274;43.980;2023-04-06T06:42:42;5.97;;;2.15;;
69981;SDS011;57319;56.274;43.980;2023-04-06T06:45:09;21.02;;;2.17;;
69981;SDS011;57319;56.274;43.980;2023-04-06T06:47:35;4.95;;;2.38;;
69981;SDS011;57319;56.274;43.980;2023-04-06T06:50:01;33.53;;;2.25;;
69981;SDS011;57319;56.274;43.980;2023-04-06T06:52:28;8.45;;;2.05;;
69981;SDS011;57319;56.274;43.980;2023-04-06T06:54:54;17.30;;;2.30;;
69981;SDS011;57319;56.274;43.980;2023-04-06T06:57:23;2.33;;;1.95;;
69981;SDS011;57319;56.274;43.980;2023-04-06T06:59:49;5.18;;;1.60;;
69981;SDS011;57319;56.274;43.980;2023-04-06T07:02:15;2.55;;;1.90;;
69981;SDS011;57319;56.274;43.980;2023-04-06T07:04:41;2.90;;;1.90;;
69981;SDS011;57319;56.274;43.980;2023-04-06T07:07:06;7.75;;;1.85;;
69981;SDS011;57319;56.274;43.980;2023-04-06T07:09:33;75.50;;;5.72;;
69981;SDS011;57319;56.274;43.980;2023-04-06T07:11:59;2.08;;;1.75;;
69981;SDS011;57319;56.274;43.980;2023-04-06T07:14:26;8.05;;;2.25;;
69981;SDS011;57319;56.274;43.980;2023-04-06T07:16:51;5.82;;;1.90;;
69981;SDS011;57319;56.274;43.980;2023-04-06T07:19:17;10.93;;;1.73;;
69981;SDS011;57319;56.274;43.980;2023-04-06T07:21:43;6.28;;;1.52;;
69981;SDS011;57319;56.274;43.980;2023-04-06T07:24:08;158.27;;;10.00;;
69981;SDS011;57319;56.274;43.980;2023-04-06T07:26:37;11.68;;;1.88;;
69981;SDS011;57319;56.274;43.980;2023-04-06T07:29:02;5.00;;;1.65;;
69981;SDS011;57319;56.274;43.980;2023-04-06T07:31:28;5.50;;;1.35;;
69981;SDS011;57319;56.274;43.980;2023-04-06T07:33:54;9.73;;;1.70;;
69981;SDS011;57319;56.274;43.980;2023-04-06T07:36:20;9.07;;;1.88;;
69981;SDS011;57319;56.274;43.980;2023-04-06T07:38:46;8.63;;;2.05;;
69981;SDS011;57319;56.274;43.980;2023-04-06T07:41:12;3.88;;;1.85;;
69981;SDS011;57319;56.274;43.980;2023-04-06T07:43:38;7.65;;;2.30;;
69981;SDS011;57319;56.274;43.980;2023-04-06T07:46:05;3.90;;;2.15;;
69981;SDS011;57319;56.274;43.980;2023-04-06T07:48:31;11.13;;;2.33;;
69981;SDS011;57319;56.274;43.980;2023-04-06T07:51:03;12.18;;;2.53;;
69981;SDS011;57319;56.274;43.980;2023-04-06T07:53:30;9.00;;;1.50;;
69981;SDS011;57319;56.274;43.980;2023-04-06T07:55:57;5.57;;;2.58;;
69981;SDS011;57319;56.274;43.980;2023-04-06T07:58:25;23.45;;;2.20;;
69981;SDS011;57319;56.274;43.980;2023-04-06T08:00:51;2.08;;;1.50;;
69981;SDS011;57319;56.274;43.980;2023-04-06T08:03:17;9.32;;;1.77;;
69981;SDS011;57319;56.274;43.980;2023-04-06T08:05:42;17.90;;;2.08;;
69981;SDS011;57319;56.274;43.980;2023-04-06T08:08:08;13.50;;;1.80;;
69981;SDS011;57319;56.274;43.980;2023-04-06T08:10:34;10.32;;;1.70;;
69981;SDS011;57319;56.274;43.980;2023-04-06T08:13:00;9.52;;;2.08;;
69981;SDS011;57319;56.274;43.980;2023-04-06T08:15:26;1.67;;;1.55;;
69981;SDS011;57319;56.274;43.980;2023-04-06T08:17:52;16.73;;;2.35;;
69981;SDS011;57319;56.274;43.980;2023-04-06T08:20:17;1.67;;;1.40;;
69981;SDS011;57319;56.274;43.980;2023-04-06T08:22:43;2.65;;;1.42;;
69981;SDS011;57319;56.274;43.980;2023-04-06T08:25:09;16.27;;;1.77;;
69981;SDS011;57319;56.274;43.980;2023-04-06T08:27:35;1.75;;;1.65;;
69981;SDS011;57319;56.274;43.980;2023-04-06T08:30:00;2.33;;;1.48;;
69981;SDS011;57319;56.274;43.980;2023-04-06T08:32:27;5.15;;;1.40;;
69981;SDS011;57319;56.274;43.980;2023-04-06T08:34:53;3.40;;;1.20;;
69981;SDS011;57319;56.274;43.980;2023-04-06T08:37:20;4.65;;;1.33;;
69981;SDS011;57319;56.274;43.980;2023-04-06T08:39:46;6.53;;;1.45;;
69981;SDS011;57319;56.274;43.980;2023-04-06T08:42:13;7.93;;;1.52;;
69981;SDS011;57319;56.274;43.980;2023-04-06T08:44:44;9.45;;;1.30;;
69981;SDS011;57319;56.274;43.980;2023-04-06T08:47:11;4.10;;;1.10;;
69981;SDS011;57319;56.274;43.980;2023-04-06T08:49:37;2.97;;;1.20;;
69981;SDS011;57319;56.274;43.980;2023-04-06T08:52:05;21.98;;;1.92;;
69981;SDS011;57319;56.274;43.980;2023-04-06T08:54:33;1.95;;;1.02;;
69981;SDS011;57319;56.274;43.980;2023-04-06T08:56:59;22.80;;;1.75;;
69981;SDS011;57319;56.274;43.980;2023-04-06T08:59:26;7.32;;;1.00;;
69981;SDS011;57319;56.274;43.980;2023-04-06T09:01:52;7.80;;;1.00;;
69981;SDS011;57319;56.274;43.980;2023-04-06T09:04:19;2.17;;;1.10;;
69981;SDS011;57319;56.274;43.980;2023-04-06T09:06:45;9.75;;;1.40;;
69981;SDS011;57319;56.274;43.980;2023-04-06T09:09:11;2.88;;;1.25;;
69981;SDS011;57319;56.274;43.980;2023-04-06T09:14:09;8.25;;;1.50;;
69981;SDS011;57319;56.274;43.980;2023-04-06T09:16:38;0.90;;;0.90;;
69981;SDS011;57319;56.274;43.980;2023-04-06T09:19:06;6.22;;;1.30;;
69981;SDS011;57319;56.274;43.980;2023-04-06T09:21:33;1.67;;;0.90;;
69981;SDS011;57319;56.274;43.980;2023-04-06T09:23:59;6.25;;;1.48;;
69981;SDS011;57319;56.274;43.980;2023-04-06T09:26:26;1.10;;;0.93;;
69981;SDS011;57319;56.274;43.980;2023-04-06T09:28:56;3.13;;;0.93;;
69981;SDS011;57319;56.274;43.980;2023-04-06T09:31:29;7.40;;;0.90;;
69981;SDS011;57319;56.274;43.980;2023-04-06T09:33:58;14.40;;;1.65;;
69981;SDS011;57319;56.274;43.980;2023-04-06T09:36:35;15.13;;;1.58;;
69981;SDS011;57319;56.274;43.980;2023-04-06T09:39:05;1.65;;;0.85;;
69981;SDS011;57319;56.274;43.980;2023-04-06T09:41:32;4.63;;;0.93;;
69981;SDS011;57319;56.274;43.980;2023-04-06T09:44:11;1.00;;;1.00;;
69981;SDS011;57319;56.274;43.980;2023-04-06T09:46:38;2.17;;;0.70;;
69981;SDS011;57319;56.274;43.980;2023-04-06T09:49:08;5.05;;;0.98;;
69981;SDS011;57319;56.274;43.980;2023-04-06T09:51:45;22.38;;;1.10;;
69981;SDS011;57319;56.274;43.980;2023-04-06T09:54:15;7.45;;;0.80;;
69981;SDS011;57319;56.274;43.980;2023-04-06T09:59:13;2.70;;;0.90;;
69981;SDS011;57319;56.274;43.980;2023-04-06T10:01:43;0.90;;;0.90;;
69981;SDS011;57319;56.274;43.980;2023-04-06T10:07:00;34.60;;;4.25;;
69981;SDS011;57319;56.274;43.980;2023-04-06T10:09:28;1.38;;;1.05;;
69981;SDS011;57319;56.274;43.980;2023-04-06T10:12:01;10.65;;;1.23;;
69981;SDS011;57319;56.274;43.980;2023-04-06T10:14:28;2.58;;;1.00;;
69981;SDS011;57319;56.274;43.980;2023-04-06T10:16:55;3.35;;;0.98;;
69981;SDS011;57319;56.274;43.980;2023-04-06T10:19:24;0.85;;;0.80;;
69981;SDS011;57319;56.274;43.980;2023-04-06T10:21:54;6.45;;;0.82;;
69981;SDS011;57319;56.274;43.980;2023-04-06T10:24:25;0.82;;;0.82;;
69981;SDS011;57319;56.274;43.980;2023-04-06T10:27:01;20.35;;;2.15;;
69981;SDS011;57319;56.274;43.980;2023-04-06T10:29:28;4.25;;;0.95;;
69981;SDS011;57319;56.274;43.980;2023-04-06T10:31:53;10.57;;;0.77;;
69981;SDS011;57319;56.274;43.980;2023-04-06T10:34:20;7.28;;;0.82;;
69981;SDS011;57319;56.274;43.980;2023-04-06T10:36:46;1.27;;;0.95;;
69981;SDS011;57319;56.274;43.980;2023-04-06T10:39:12;25.05;;;1.98;;
69981;SDS011;57319;56.274;43.980;2023-04-06T10:41:41;6.32;;;1.20;;
69981;SDS011;57319;56.274;43.980;2023-04-06T10:44:08;11.30;;;1.50;;
69981;SDS011;57319;56.274;43.980;2023-04-06T10:46:52;2.28;;;0.80;;
69981;SDS011;57319;56.274;43.980;2023-04-06T10:49:21;0.75;;;0.73;;
69981;SDS011;57319;56.274;43.980;2023-04-06T10:51:51;0.80;;;0.70;;
69981;SDS011;57319;56.274;43.980;2023-04-06T10:54:21;5.55;;;1.10;;
69981;SDS011;57319;56.274;43.980;2023-04-06T10:56:47;5.50;;;1.02;;
69981;SDS011;57319;56.274;43.980;2023-04-06T10:59:14;5.18;;;1.17;;
69981;SDS011;57319;56.274;43.980;2023-04-06T11:01:44;2.70;;;1.05;;
69981;SDS011;57319;56.274;43.980;2023-04-06T11:04:15;13.90;;;1.60;;
69981;SDS011;57319;56.274;43.980;2023-04-06T11:06:48;7.82;;;0.80;;
69981;SDS011;57319;56.274;43.980;2023-04-06T11:09:27;9.15;;;1.60;;
69981;SDS011;57319;56.274;43.980;2023-04-06T11:11:54;5.72;;;0.85;;
69981;SDS011;57319;56.274;43.980;2023-04-06T11:14:21;0.82;;;0.82;;
69981;SDS011;57319;56.274;43.980;2023-04-06T11:16:48;20.25;;;1.50;;
69981;SDS011;57319;56.274;43.980;2023-04-06T11:19:16;17.58;;;1.40;;
69981;SDS011;57319;56.274;43.980;2023-04-06T11:21:46;5.88;;;0.98;;
69981;SDS011;57319;56.274;43.980;2023-04-06T11:24:16;2.85;;;0.90;;
69981;SDS011;57319;56.274;43.980;2023-04-06T11:26:55;1.30;;;0.55;;
69981;SDS011;57319;56.274;43.980;2023-04-06T11:29:23;9.65;;;0.90;;
69981;SDS011;57319;56.274;43.980;2023-04-06T11:31:54;1.23;;;0.80;;
69981;SDS011;57319;56.274;43.980;2023-04-06T11:34:30;2.72;;;0.80;;
69981;SDS011;57319;56.274;43.980;2023-04-06T11:37:01;1.73;;;0.82;;
69981;SDS011;57319;56.274;43.980;2023-04-06T11:39:29;12.05;;;1.17;;
69981;SDS011;57319;56.274;43.980;2023-04-06T11:41:59;18.67;;;1.17;;
69981;SDS011;57319;56.274;43.980;2023-04-06T11:44:44;1.95;;;0.70;;
69981;SDS011;57319;56.274;43.980;2023-04-06T11:47:14;5.60;;;0.90;;
69981;SDS011;57319;56.274;43.980;2023-04-06T11:49:41;3.33;;;2.47;;
69981;SDS011;57319;56.274;43.980;2023-04-06T11:52:25;1.80;;;0.90;;
69981;SDS011;57319;56.274;43.980;2023-04-06T11:54:53;11.10;;;1.55;;
69981;SDS011;57319;56.274;43.980;2023-04-06T11:57:20;2.25;;;1.33;;
69981;SDS011;57319;56.274;43.980;2023-04-06T11:59:49;9.13;;;1.92;;
69981;SDS011;57319;56.274;43.980;2023-04-06T12:02:16;11.32;;;1.27;;
69981;SDS011;57319;56.274;43.980;2023-04-06T12:04:42;8.07;;;1.40;;
69981;SDS011;57319;56.274;43.980;2023-04-06T12:07:08;13.13;;;1.55;;
69981;SDS011;57319;56.274;43.980;2023-04-06T12:09:34;15.60;;;1.20;;
69981;SDS011;57319;56.274;43.980;2023-04-06T12:12:01;10.70;;;1.08;;
69981;SDS011;57319;56.274;43.980;2023-04-06T12:14:27;5.28;;;1.10;;
69981;SDS011;57319;56.274;43.980;2023-04-06T12:16:52;31.58;;;1.83;;
69981;SDS011;57319;56.274;43.980;2023-04-06T12:19:18;7.55;;;1.20;;
69981;SDS011;57319;56.274;43.980;2023-04-06T12:21:44;63.08;;;4.30;;
69981;SDS011;57319;56.274;43.980;2023-04-06T12:24:10;10.27;;;1.00;;
69981;SDS011;57319;56.274;43.980;2023-04-06T12:26:35;4.28;;;0.90;;
69981;SDS011;57319;56.274;43.980;2023-04-06T12:29:02;7.90;;;1.02;;
69981;SDS011;57319;56.274;43.980;2023-04-06T12:31:32;22.27;;;2.17;;
69981;SDS011;57319;56.274;43.980;2023-04-06T12:34:00;1.27;;;1.00;;
69981;SDS011;57319;56.274;43.980;2023-04-06T12:36:27;32.22;;;2.60;;
69981;SDS011;57319;56.274;43.980;2023-04-06T12:38:53;4.82;;;1.20;;
69981;SDS011;57319;56.274;43.980;2023-04-06T12:41:19;0.98;;;0.82;;
69981;SDS011;57319;56.274;43.980;2023-04-06T12:43:45;7.13;;;1.10;;
69981;SDS011;57319;56.274;43.980;2023-04-06T12:46:11;22.27;;;1.30;;
69981;SDS011;57319;56.274;43.980;2023-04-06T12:48:40;6.20;;;0.88;;
69981;SDS011;57319;56.274;43.980;2023-04-06T12:51:06;10.50;;;1.20;;
69981;SDS011;57319;56.274;43.980;2023-04-06T12:53:33;9.02;;;0.95;;
69981;SDS011;57319;56.274;43.980;2023-04-06T12:56:01;10.35;;;1.08;;
69981;SDS011;57319;56.274;43.980;2023-04-06T12:58:28;3.10;;;0.73;;
69981;SDS011;57319;56.274;43.980;2023-04-06T13:00:54;20.23;;;1.98;;
69981;SDS011;57319;56.274;43.980;2023-04-06T13:03:23;28.60;;;2.33;;
69981;SDS011;57319;56.274;43.980;2023-04-06T13:05:50;1.67;;;0.88;;
69981;SDS011;57319;56.274;43.980;2023-04-06T13:08:17;3.55;;;1.33;;
69981;SDS011;57319;56.274;43.980;2023-04-06T13:10:46;0.90;;;0.90;;
69981;SDS011;57319;56.274;43.980;2023-04-06T13:13:16;8.80;;;1.17;;
69981;SDS011;57319;56.274;43.980;2023-04-06T13:15:42;1.80;;;1.38;;
69981;SDS011;57319;56.274;43.980;2023-04-06T13:18:10;16.73;;;1.08;;
69981;SDS011;57319;56.274;43.980;2023-04-06T13:20:36;26.27;;;1.30;;
69981;SDS011;57319;56.274;43.980;2023-04-06T13:23:02;12.30;;;1.40;;
69981;SDS011;57319;56.274;43.980;2023-04-06T13:25:28;6.07;;;0.90;;
69981;SDS011;57319;56.274;43.980;2023-04-06T13:27:54;1.45;;;1.00;;
69981;SDS011;57319;56.274;43.980;2023-04-06T13:30:21;3.72;;;0.90;;
69981;SDS011;57319;56.274;43.980;2023-04-06T13:32:47;8.02;;;1.30;;
69981;SDS011;57319;56.274;43.980;2023-04-06T13:35:12;6.97;;;1.13;;
69981;SDS011;57319;56.274;43.980;2023-04-06T13:37:38;2.55;;;0.90;;
69981;SDS011;57319;56.274;43.980;2023-04-06T13:40:04;22.35;;;1.67;;
69981;SDS011;57319;56.274;43.980;2023-04-06T13:42:31;30.88;;;1.98;;
69981;SDS011;57319;56.274;43.980;2023-04-06T13:44:57;21.15;;;1.50;;
69981;SDS011;57319;56.274;43.980;2023-04-06T13:47:24;16.70;;;1.90;;
69981;SDS011;57319;56.274;43.980;2023-04-06T13:49:50;12.68;;;1.20;;
69981;SDS011;57319;56.274;43.980;2023-04-06T13:52:17;8.10;;;0.98;;
69981;SDS011;57319;56.274;43.980;2023-04-06T13:54:44;3.42;;;1.48;;
69981;SDS011;57319;56.274;43.980;2023-04-06T13:57:10;7.00;;;1.13;;
69981;SDS011;57319;56.274;43.980;2023-04-06T13:59:37;7.88;;;1.00;;
69981;SDS011;57319;56.274;43.980;2023-04-06T14:02:04;8.02;;;1.80;;
69981;SDS011;57319;56.274;43.980;2023-04-06T14:04:31;9.25;;;0.95;;
69981;SDS011;57319;56.274;43.980;2023-04-06T14:06:59;29.23;;;1.67;;
69981;SDS011;57319;56.274;43.980;2023-04-06T14:09:26;6.40;;;1.73;;
69981;SDS011;57319;56.274;43.980;2023-04-06T14:11:51;66.30;;;3.53;;
69981;SDS011;57319;56.274;43.980;2023-04-06T14:14:17;17.75;;;1.48;;
69981;SDS011;57319;56.274;43.980;2023-04-06T14:16:43;23.17;;;1.98;;
69981;SDS011;57319;56.274;43.980;2023-04-06T14:19:14;11.80;;;1.15;;
69981;SDS011;57319;56.274;43.980;2023-04-06T14:21:42;7.82;;;0.70;;
69981;SDS011;57319;56.274;43.980;2023-04-06T14:24:09;2.47;;;1.02;;
69981;SDS011;57319;56.274;43.980;2023-04-06T14:26:35;5.88;;;1.02;;
69981;SDS011;57319;56.274;43.980;2023-04-06T14:29:03;6.88;;;1.10;;
69981;SDS011;57319;56.274;43.980;2023-04-06T14:31:30;4.72;;;1.15;;
69981;SDS011;57319;56.274;43.980;2023-04-06T14:33:56;12.95;;;2.95;;
69981;SDS011;57319;56.274;43.980;2023-04-06T14:36:22;4.68;;;1.17;;